sensor_id;sensor_type;location;lat;lon;timestamp;P1;durP1;ratioP1;P2;durP2;ratioP2
13469;SDS011;6807;48.682;9.032;2022-11-27T00:00:44;122.25;;;15.32;;
13469;SDS011;6807;48.682;9.032;2022-11-27T00:03:11;40.28;;;11.63;;
13469;SDS011;6807;48.682;9.032;2022-11-27T00:05:49;57.22;;;12.73;;
13469;SDS011;6807;48.682;9.032;2022-11-27T00:08:19;34.47;;;13.27;;
13469;SDS011;6807;48.682;9.032;2022-11-27T00:10:46;96.90;;;14.95;;
13469;SDS011;6807;48.682;9.032;2022-11-27T00:13:13;36.10;;;12.85;;
13469;SDS011;6807;48.682;9.032;2022-11-27T00:15:41;111.43;;;16.10;;
13469;SDS011;6807;48.682;9.032;2022-11-27T00:18:08;45.33;;;12.70;;
13469;SDS011;6807;48.682;9.032;2022-11-27T00:20:39;55.50;;;14.55;;
13469;SDS011;6807;48.682;9.032;2022-11-27T00:23:06;29.83;;;13.60;;
13469;SDS011;6807;48.682;9.032;2022-11-27T00:25:43;26.88;;;12.52;;
13469;SDS011;6807;48.682;9.032;2022-11-27T00:28:38;21.38;;;11.15;;
13469;SDS011;6807;48.682;9.032;2022-11-27T00:31:06;21.75;;;12.60;;
13469;SDS011;6807;48.682;9.032;2022-11-27T00:33:33;25.60;;;12.25;;
13469;SDS011;6807;48.682;9.032;2022-11-27T00:36:03;57.53;;;14.48;;
13469;SDS011;6807;48.682;9.032;2022-11-27T00:38:32;32.53;;;13.75;;
13469;SDS011;6807;48.682;9.032;2022-11-27T00:41:05;41.80;;;13.57;;
13469;SDS011;6807;48.682;9.032;2022-11-27T00:43:33;22.17;;;11.13;;
13469;SDS011;6807;48.682;9.032;2022-11-27T00:46:01;19.13;;;11.85;;
13469;SDS011;6807;48.682;9.032;2022-11-27T00:48:33;28.30;;;12.52;;
13469;SDS011;6807;48.682;9.032;2022-11-27T00:51:06;29.25;;;13.10;;
13469;SDS011;6807;48.682;9.032;2022-11-27T00:53:39;21.90;;;12.40;;
13469;SDS011;6807;48.682;9.032;2022-11-27T00:56:15;23.30;;;13.52;;
13469;SDS011;6807;48.682;9.032;2022-11-27T00:58:50;19.73;;;13.85;;
13469;SDS011;6807;48.682;9.032;2022-11-27T01:01:23;19.48;;;12.90;;
13469;SDS011;6807;48.682;9.032;2022-11-27T01:04:06;20.83;;;12.75;;
13469;SDS011;6807;48.682;9.032;2022-11-27T01:06:48;18.90;;;12.68;;
13469;SDS011;6807;48.682;9.032;2022-11-27T01:09:26;18.92;;;11.93;;
13469;SDS011;6807;48.682;9.032;2022-11-27T01:12:02;19.02;;;11.40;;
13469;SDS011;6807;48.682;9.032;2022-11-27T01:14:34;17.02;;;11.20;;
13469;SDS011;6807;48.682;9.032;2022-11-27T01:17:17;14.73;;;10.70;;
13469;SDS011;6807;48.682;9.032;2022-11-27T01:19:55;18.48;;;11.60;;
13469;SDS011;6807;48.682;9.032;2022-11-27T01:22:31;18.17;;;11.65;;
13469;SDS011;6807;48.682;9.032;2022-11-27T01:25:06;15.18;;;11.05;;
13469;SDS011;6807;48.682;9.032;2022-11-27T01:37:23;16.95;;;10.95;;
13469;SDS011;6807;48.682;9.032;2022-11-27T01:40:09;15.52;;;10.30;;
13469;SDS011;6807;48.682;9.032;2022-11-27T01:42:59;18.92;;;11.57;;
13469;SDS011;6807;48.682;9.032;2022-11-27T01:58:20;14.05;;;9.88;;
13469;SDS011;6807;48.682;9.032;2022-11-27T02:25:30;14.75;;;9.38;;
13469;SDS011;6807;48.682;9.032;2022-11-27T02:28:01;13.05;;;9.10;;
13469;SDS011;6807;48.682;9.032;2022-11-27T02:30:33;15.10;;;9.27;;
13469;SDS011;6807;48.682;9.032;2022-11-27T02:33:03;12.25;;;8.27;;
13469;SDS011;6807;48.682;9.032;2022-11-27T02:35:32;12.32;;;8.73;;
13469;SDS011;6807;48.682;9.032;2022-11-27T02:38:04;13.82;;;8.23;;
13469;SDS011;6807;48.682;9.032;2022-11-27T02:40:36;15.82;;;9.40;;
13469;SDS011;6807;48.682;9.032;2022-11-27T02:43:08;12.60;;;8.65;;
13469;SDS011;6807;48.682;9.032;2022-11-27T02:45:39;13.02;;;8.82;;
13469;SDS011;6807;48.682;9.032;2022-11-27T02:48:09;12.13;;;8.70;;
13469;SDS011;6807;48.682;9.032;2022-11-27T02:50:38;15.05;;;9.10;;
13469;SDS011;6807;48.682;9.032;2022-11-27T02:53:06;16.33;;;9.55;;
13469;SDS011;6807;48.682;9.032;2022-11-27T02:55:35;13.73;;;9.23;;
13469;SDS011;6807;48.682;9.032;2022-11-27T02:58:05;16.90;;;10.15;;
13469;SDS011;6807;48.682;9.032;2022-11-27T03:00:35;20.33;;;10.70;;
13469;SDS011;6807;48.682;9.032;2022-11-27T03:03:05;16.25;;;10.65;;
13469;SDS011;6807;48.682;9.032;2022-11-27T03:05:36;18.58;;;10.25;;
13469;SDS011;6807;48.682;9.032;2022-11-27T03:08:05;16.48;;;9.38;;
13469;SDS011;6807;48.682;9.032;2022-11-27T03:10:34;15.85;;;9.63;;
13469;SDS011;6807;48.682;9.032;2022-11-27T03:13:07;14.93;;;9.63;;
13469;SDS011;6807;48.682;9.032;2022-11-27T03:15:36;15.68;;;8.85;;
13469;SDS011;6807;48.682;9.032;2022-11-27T03:18:08;12.30;;;8.57;;
13469;SDS011;6807;48.682;9.032;2022-11-27T03:20:38;17.55;;;10.35;;
13469;SDS011;6807;48.682;9.032;2022-11-27T03:23:06;16.55;;;10.50;;
13469;SDS011;6807;48.682;9.032;2022-11-27T03:25:34;23.88;;;12.02;;
13469;SDS011;6807;48.682;9.032;2022-11-27T03:28:02;20.95;;;11.57;;
13469;SDS011;6807;48.682;9.032;2022-11-27T03:30:32;13.73;;;9.55;;
13469;SDS011;6807;48.682;9.032;2022-11-27T03:32:59;14.60;;;9.15;;
13469;SDS011;6807;48.682;9.032;2022-11-27T03:35:28;13.60;;;9.80;;
13469;SDS011;6807;48.682;9.032;2022-11-27T03:37:56;14.77;;;9.90;;
13469;SDS011;6807;48.682;9.032;2022-11-27T03:40:26;18.10;;;10.60;;
13469;SDS011;6807;48.682;9.032;2022-11-27T03:42:57;15.75;;;10.13;;
13469;SDS011;6807;48.682;9.032;2022-11-27T03:45:26;16.10;;;10.20;;
13469;SDS011;6807;48.682;9.032;2022-11-27T03:47:58;18.10;;;9.65;;
13469;SDS011;6807;48.682;9.032;2022-11-27T03:50:30;14.93;;;10.40;;
13469;SDS011;6807;48.682;9.032;2022-11-27T03:53:02;17.13;;;10.98;;
13469;SDS011;6807;48.682;9.032;2022-11-27T03:55:34;16.20;;;9.93;;
13469;SDS011;6807;48.682;9.032;2022-11-27T03:58:04;17.23;;;9.75;;
13469;SDS011;6807;48.682;9.032;2022-11-27T04:00:36;14.13;;;9.05;;
13469;SDS011;6807;48.682;9.032;2022-11-27T04:03:07;17.33;;;9.00;;
13469;SDS011;6807;48.682;9.032;2022-11-27T04:05:36;15.50;;;8.90;;
13469;SDS011;6807;48.682;9.032;2022-11-27T04:08:04;17.67;;;8.82;;
13469;SDS011;6807;48.682;9.032;2022-11-27T04:10:31;17.20;;;8.82;;
13469;SDS011;6807;48.682;9.032;2022-11-27T04:12:58;17.75;;;10.13;;
13469;SDS011;6807;48.682;9.032;2022-11-27T04:15:25;14.50;;;8.70;;
13469;SDS011;6807;48.682;9.032;2022-11-27T04:17:53;18.63;;;8.98;;
13469;SDS011;6807;48.682;9.032;2022-11-27T04:20:20;13.88;;;8.23;;
13469;SDS011;6807;48.682;9.032;2022-11-27T04:22:49;10.73;;;7.55;;
13469;SDS011;6807;48.682;9.032;2022-11-27T04:25:16;19.73;;;8.05;;
13469;SDS011;6807;48.682;9.032;2022-11-27T04:27:43;12.63;;;7.57;;
13469;SDS011;6807;48.682;9.032;2022-11-27T04:30:12;10.85;;;7.07;;
13469;SDS011;6807;48.682;9.032;2022-11-27T04:32:40;12.45;;;7.45;;
13469;SDS011;6807;48.682;9.032;2022-11-27T04:35:08;12.93;;;7.15;;
13469;SDS011;6807;48.682;9.032;2022-11-27T04:37:35;9.57;;;6.25;;
13469;SDS011;6807;48.682;9.032;2022-11-27T04:40:05;14.00;;;6.53;;
13469;SDS011;6807;48.682;9.032;2022-11-27T04:42:32;15.57;;;6.95;;
13469;SDS011;6807;48.682;9.032;2022-11-27T04:45:00;8.68;;;6.72;;
13469;SDS011;6807;48.682;9.032;2022-11-27T04:47:27;8.75;;;5.88;;
13469;SDS011;6807;48.682;9.032;2022-11-27T04:50:02;10.68;;;6.20;;
13469;SDS011;6807;48.682;9.032;2022-11-27T04:52:37;11.27;;;6.25;;
13469;SDS011;6807;48.682;9.032;2022-11-27T04:55:06;14.95;;;5.70;;
13469;SDS011;6807;48.682;9.032;2022-11-27T04:57:33;10.45;;;5.28;;
13469;SDS011;6807;48.682;9.032;2022-11-27T05:00:01;9.77;;;6.53;;
13469;SDS011;6807;48.682;9.032;2022-11-27T05:02:29;13.55;;;5.70;;
13469;SDS011;6807;48.682;9.032;2022-11-27T05:04:56;8.77;;;5.20;;
13469;SDS011;6807;48.682;9.032;2022-11-27T05:07:23;10.55;;;5.72;;
13469;SDS011;6807;48.682;9.032;2022-11-27T05:09:57;8.27;;;5.82;;
13469;SDS011;6807;48.682;9.032;2022-11-27T05:12:26;10.15;;;6.50;;
13469;SDS011;6807;48.682;9.032;2022-11-27T05:14:59;11.68;;;5.47;;
13469;SDS011;6807;48.682;9.032;2022-11-27T05:17:27;11.35;;;5.80;;
13469;SDS011;6807;48.682;9.032;2022-11-27T05:19:54;8.95;;;5.90;;
13469;SDS011;6807;48.682;9.032;2022-11-27T05:22:21;11.77;;;6.35;;
13469;SDS011;6807;48.682;9.032;2022-11-27T05:24:48;11.82;;;6.03;;
13469;SDS011;6807;48.682;9.032;2022-11-27T05:27:18;12.98;;;5.90;;
13469;SDS011;6807;48.682;9.032;2022-11-27T05:29:46;18.27;;;9.07;;
13469;SDS011;6807;48.682;9.032;2022-11-27T05:32:14;10.57;;;6.65;;
13469;SDS011;6807;48.682;9.032;2022-11-27T05:34:41;9.50;;;6.38;;
13469;SDS011;6807;48.682;9.032;2022-11-27T05:37:08;11.48;;;6.45;;
13469;SDS011;6807;48.682;9.032;2022-11-27T05:39:36;9.48;;;6.68;;
13469;SDS011;6807;48.682;9.032;2022-11-27T05:42:04;12.55;;;6.75;;
13469;SDS011;6807;48.682;9.032;2022-11-27T05:44:31;9.55;;;6.28;;
13469;SDS011;6807;48.682;9.032;2022-11-27T05:47:01;16.70;;;6.75;;
13469;SDS011;6807;48.682;9.032;2022-11-27T05:49:28;11.15;;;7.38;;
13469;SDS011;6807;48.682;9.032;2022-11-27T05:51:56;9.23;;;6.25;;
13469;SDS011;6807;48.682;9.032;2022-11-27T05:54:23;9.88;;;6.15;;
13469;SDS011;6807;48.682;9.032;2022-11-27T05:56:50;8.32;;;6.25;;
13469;SDS011;6807;48.682;9.032;2022-11-27T05:59:26;8.05;;;6.10;;
13469;SDS011;6807;48.682;9.032;2022-11-27T06:02:01;10.68;;;6.53;;
13469;SDS011;6807;48.682;9.032;2022-11-27T06:04:31;9.40;;;6.20;;
13469;SDS011;6807;48.682;9.032;2022-11-27T06:07:00;12.45;;;6.57;;
13469;SDS011;6807;48.682;9.032;2022-11-27T06:09:28;11.55;;;6.35;;
13469;SDS011;6807;48.682;9.032;2022-11-27T06:11:55;8.25;;;6.13;;
13469;SDS011;6807;48.682;9.032;2022-11-27T06:14:22;12.00;;;6.68;;
13469;SDS011;6807;48.682;9.032;2022-11-27T06:16:49;8.52;;;5.50;;
13469;SDS011;6807;48.682;9.032;2022-11-27T06:19:18;12.23;;;6.13;;
13469;SDS011;6807;48.682;9.032;2022-11-27T06:21:46;8.50;;;5.82;;
13469;SDS011;6807;48.682;9.032;2022-11-27T06:24:14;15.25;;;7.40;;
13469;SDS011;6807;48.682;9.032;2022-11-27T06:26:41;13.43;;;6.68;;
13469;SDS011;6807;48.682;9.032;2022-11-27T06:29:08;11.15;;;6.13;;
13469;SDS011;6807;48.682;9.032;2022-11-27T06:31:35;9.25;;;6.10;;
13469;SDS011;6807;48.682;9.032;2022-11-27T06:34:03;12.18;;;6.05;;
13469;SDS011;6807;48.682;9.032;2022-11-27T06:36:32;8.55;;;5.88;;
13469;SDS011;6807;48.682;9.032;2022-11-27T06:39:03;8.80;;;5.88;;
13469;SDS011;6807;48.682;9.032;2022-11-27T06:41:30;11.43;;;5.47;;
13469;SDS011;6807;48.682;9.032;2022-11-27T06:44:05;12.85;;;5.85;;
13469;SDS011;6807;48.682;9.032;2022-11-27T06:46:35;9.35;;;5.68;;
13469;SDS011;6807;48.682;9.032;2022-11-27T06:49:03;15.10;;;6.15;;
13469;SDS011;6807;48.682;9.032;2022-11-27T06:51:31;10.57;;;5.97;;
13469;SDS011;6807;48.682;9.032;2022-11-27T06:53:59;8.60;;;6.05;;
13469;SDS011;6807;48.682;9.032;2022-11-27T06:56:33;8.85;;;5.20;;
13469;SDS011;6807;48.682;9.032;2022-11-27T06:59:10;8.27;;;5.55;;
13469;SDS011;6807;48.682;9.032;2022-11-27T07:01:50;8.32;;;5.28;;
13469;SDS011;6807;48.682;9.032;2022-11-27T07:04:19;7.68;;;5.13;;
13469;SDS011;6807;48.682;9.032;2022-11-27T07:06:47;10.45;;;5.68;;
13469;SDS011;6807;48.682;9.032;2022-11-27T07:09:15;11.68;;;5.22;;
13469;SDS011;6807;48.682;9.032;2022-11-27T07:11:42;12.90;;;6.63;;
13469;SDS011;6807;48.682;9.032;2022-11-27T07:14:09;8.82;;;5.80;;
13469;SDS011;6807;48.682;9.032;2022-11-27T07:16:37;14.55;;;6.35;;
13469;SDS011;6807;48.682;9.032;2022-11-27T07:19:05;9.65;;;5.80;;
13469;SDS011;6807;48.682;9.032;2022-11-27T07:21:34;15.32;;;5.95;;
13469;SDS011;6807;48.682;9.032;2022-11-27T07:24:03;15.77;;;6.10;;
13469;SDS011;6807;48.682;9.032;2022-11-27T07:26:32;11.23;;;6.05;;
13469;SDS011;6807;48.682;9.032;2022-11-27T07:28:59;11.68;;;5.72;;
13469;SDS011;6807;48.682;9.032;2022-11-27T07:31:27;10.00;;;5.97;;
13469;SDS011;6807;48.682;9.032;2022-11-27T07:33:55;8.25;;;6.18;;
13469;SDS011;6807;48.682;9.032;2022-11-27T07:36:25;13.95;;;7.20;;
13469;SDS011;6807;48.682;9.032;2022-11-27T07:38:54;15.40;;;7.28;;
13469;SDS011;6807;48.682;9.032;2022-11-27T07:41:23;10.35;;;7.07;;
13469;SDS011;6807;48.682;9.032;2022-11-27T07:43:51;13.05;;;6.10;;
13469;SDS011;6807;48.682;9.032;2022-11-27T07:46:19;10.60;;;6.13;;
13469;SDS011;6807;48.682;9.032;2022-11-27T07:48:47;10.13;;;6.18;;
13469;SDS011;6807;48.682;9.032;2022-11-27T07:51:16;11.85;;;6.95;;
13469;SDS011;6807;48.682;9.032;2022-11-27T07:53:43;12.30;;;6.57;;
13469;SDS011;6807;48.682;9.032;2022-11-27T07:56:11;9.82;;;6.20;;
13469;SDS011;6807;48.682;9.032;2022-11-27T07:58:40;9.73;;;6.65;;
13469;SDS011;6807;48.682;9.032;2022-11-27T08:06:16;9.77;;;6.80;;
13469;SDS011;6807;48.682;9.032;2022-11-27T08:08:44;10.27;;;6.93;;
13469;SDS011;6807;48.682;9.032;2022-11-27T08:11:15;9.20;;;7.07;;
13469;SDS011;6807;48.682;9.032;2022-11-27T08:13:44;8.27;;;6.03;;
13469;SDS011;6807;48.682;9.032;2022-11-27T08:16:13;9.20;;;5.88;;
13469;SDS011;6807;48.682;9.032;2022-11-27T08:18:42;13.35;;;6.35;;
13469;SDS011;6807;48.682;9.032;2022-11-27T08:21:09;10.35;;;6.38;;
13469;SDS011;6807;48.682;9.032;2022-11-27T08:23:37;8.40;;;5.85;;
13469;SDS011;6807;48.682;9.032;2022-11-27T08:26:05;10.68;;;5.47;;
13469;SDS011;6807;48.682;9.032;2022-11-27T08:28:33;7.57;;;5.55;;
13469;SDS011;6807;48.682;9.032;2022-11-27T08:31:02;8.32;;;5.57;;
13469;SDS011;6807;48.682;9.032;2022-11-27T08:33:30;9.95;;;5.75;;
13469;SDS011;6807;48.682;9.032;2022-11-27T08:35:57;8.88;;;5.75;;
13469;SDS011;6807;48.682;9.032;2022-11-27T08:38:25;7.80;;;5.22;;
13469;SDS011;6807;48.682;9.032;2022-11-27T08:40:53;8.15;;;5.00;;
13469;SDS011;6807;48.682;9.032;2022-11-27T08:43:20;5.90;;;4.80;;
13469;SDS011;6807;48.682;9.032;2022-11-27T08:45:47;7.78;;;4.90;;
13469;SDS011;6807;48.682;9.032;2022-11-27T08:48:23;6.43;;;4.88;;
13469;SDS011;6807;48.682;9.032;2022-11-27T08:50:51;7.55;;;5.63;;
13469;SDS011;6807;48.682;9.032;2022-11-27T08:53:18;6.93;;;4.82;;
13469;SDS011;6807;48.682;9.032;2022-11-27T08:55:46;8.63;;;4.78;;
13469;SDS011;6807;48.682;9.032;2022-11-27T08:58:13;5.10;;;3.90;;
13469;SDS011;6807;48.682;9.032;2022-11-27T09:00:40;4.53;;;3.67;;
13469;SDS011;6807;48.682;9.032;2022-11-27T09:03:09;6.13;;;3.65;;
13469;SDS011;6807;48.682;9.032;2022-11-27T09:05:39;4.60;;;4.03;;
13469;SDS011;6807;48.682;9.032;2022-11-27T09:08:07;5.80;;;3.78;;
13469;SDS011;6807;48.682;9.032;2022-11-27T09:10:35;5.55;;;3.92;;
13469;SDS011;6807;48.682;9.032;2022-11-27T09:13:02;3.42;;;3.10;;
13469;SDS011;6807;48.682;9.032;2022-11-27T09:15:29;4.38;;;3.10;;
13469;SDS011;6807;48.682;9.032;2022-11-27T09:17:57;5.97;;;3.50;;
13469;SDS011;6807;48.682;9.032;2022-11-27T09:20:25;5.80;;;3.63;;
13469;SDS011;6807;48.682;9.032;2022-11-27T09:22:54;5.28;;;3.05;;
13469;SDS011;6807;48.682;9.032;2022-11-27T09:25:21;5.43;;;3.10;;
13469;SDS011;6807;48.682;9.032;2022-11-27T09:27:48;3.58;;;3.08;;
13469;SDS011;6807;48.682;9.032;2022-11-27T09:30:16;3.80;;;3.30;;
13469;SDS011;6807;48.682;9.032;2022-11-27T09:32:43;3.33;;;2.97;;
13469;SDS011;6807;48.682;9.032;2022-11-27T09:35:10;3.30;;;2.58;;
13469;SDS011;6807;48.682;9.032;2022-11-27T09:37:38;5.15;;;3.25;;
13469;SDS011;6807;48.682;9.032;2022-11-27T09:40:08;4.05;;;2.97;;
13469;SDS011;6807;48.682;9.032;2022-11-27T09:42:41;4.00;;;3.40;;
13469;SDS011;6807;48.682;9.032;2022-11-27T09:45:13;3.95;;;3.42;;
13469;SDS011;6807;48.682;9.032;2022-11-27T09:47:43;3.88;;;3.30;;
13469;SDS011;6807;48.682;9.032;2022-11-27T09:50:15;5.45;;;2.78;;
13469;SDS011;6807;48.682;9.032;2022-11-27T09:52:45;4.35;;;3.05;;
13469;SDS011;6807;48.682;9.032;2022-11-27T09:55:18;5.10;;;3.28;;
13469;SDS011;6807;48.682;9.032;2022-11-27T09:57:52;4.95;;;3.10;;
13469;SDS011;6807;48.682;9.032;2022-11-27T10:00:25;3.28;;;2.90;;
13469;SDS011;6807;48.682;9.032;2022-11-27T10:02:52;4.28;;;3.25;;
13469;SDS011;6807;48.682;9.032;2022-11-27T10:05:21;3.58;;;3.05;;
13469;SDS011;6807;48.682;9.032;2022-11-27T10:10:43;3.05;;;2.65;;
13469;SDS011;6807;48.682;9.032;2022-11-27T10:13:16;3.00;;;2.60;;
13469;SDS011;6807;48.682;9.032;2022-11-27T10:15:46;3.08;;;2.78;;
13469;SDS011;6807;48.682;9.032;2022-11-27T10:18:18;4.63;;;2.88;;
13469;SDS011;6807;48.682;9.032;2022-11-27T10:20:51;5.57;;;3.15;;
13469;SDS011;6807;48.682;9.032;2022-11-27T10:23:23;2.95;;;2.50;;
13469;SDS011;6807;48.682;9.032;2022-11-27T10:25:55;3.25;;;2.58;;
13469;SDS011;6807;48.682;9.032;2022-11-27T10:28:26;3.58;;;2.80;;
13469;SDS011;6807;48.682;9.032;2022-11-27T10:30:57;4.57;;;2.47;;
13469;SDS011;6807;48.682;9.032;2022-11-27T10:33:32;3.90;;;2.95;;
13469;SDS011;6807;48.682;9.032;2022-11-27T10:36:00;3.35;;;2.67;;
13469;SDS011;6807;48.682;9.032;2022-11-27T10:38:28;5.03;;;2.50;;
13469;SDS011;6807;48.682;9.032;2022-11-27T10:41:05;3.90;;;2.47;;
13469;SDS011;6807;48.682;9.032;2022-11-27T10:43:37;3.30;;;2.70;;
13469;SDS011;6807;48.682;9.032;2022-11-27T10:46:07;3.72;;;2.80;;
13469;SDS011;6807;48.682;9.032;2022-11-27T10:48:37;4.10;;;2.60;;
13469;SDS011;6807;48.682;9.032;2022-11-27T10:51:09;4.72;;;2.90;;
13469;SDS011;6807;48.682;9.032;2022-11-27T10:53:38;2.70;;;2.17;;
13469;SDS011;6807;48.682;9.032;2022-11-27T10:56:18;3.97;;;2.47;;
13469;SDS011;6807;48.682;9.032;2022-11-27T10:59:02;3.97;;;2.60;;
13469;SDS011;6807;48.682;9.032;2022-11-27T11:02:21;3.33;;;2.50;;
13469;SDS011;6807;48.682;9.032;2022-11-27T11:05:21;2.50;;;2.20;;
13469;SDS011;6807;48.682;9.032;2022-11-27T11:07:55;3.42;;;2.63;;
13469;SDS011;6807;48.682;9.032;2022-11-27T11:10:25;2.88;;;2.38;;
13469;SDS011;6807;48.682;9.032;2022-11-27T11:13:18;3.05;;;2.45;;
13469;SDS011;6807;48.682;9.032;2022-11-27T11:15:52;4.18;;;2.42;;
13469;SDS011;6807;48.682;9.032;2022-11-27T11:18:24;3.13;;;2.67;;
13469;SDS011;6807;48.682;9.032;2022-11-27T11:20:53;2.60;;;2.03;;
13469;SDS011;6807;48.682;9.032;2022-11-27T11:23:24;3.25;;;2.40;;
13469;SDS011;6807;48.682;9.032;2022-11-27T11:25:56;2.30;;;2.10;;
13469;SDS011;6807;48.682;9.032;2022-11-27T11:28:28;2.47;;;2.20;;
13469;SDS011;6807;48.682;9.032;2022-11-27T11:30:58;4.03;;;2.92;;
13469;SDS011;6807;48.682;9.032;2022-11-27T11:33:28;4.07;;;3.38;;
13469;SDS011;6807;48.682;9.032;2022-11-27T11:35:59;3.92;;;3.42;;
13469;SDS011;6807;48.682;9.032;2022-11-27T11:38:35;3.55;;;3.22;;
13469;SDS011;6807;48.682;9.032;2022-11-27T11:41:04;3.10;;;2.80;;
13469;SDS011;6807;48.682;9.032;2022-11-27T11:43:35;3.30;;;2.72;;
13469;SDS011;6807;48.682;9.032;2022-11-27T11:46:15;3.33;;;2.67;;
13469;SDS011;6807;48.682;9.032;2022-11-27T11:48:51;5.82;;;3.88;;
13469;SDS011;6807;48.682;9.032;2022-11-27T11:51:21;6.78;;;3.95;;
13469;SDS011;6807;48.682;9.032;2022-11-27T11:53:58;3.25;;;2.75;;
13469;SDS011;6807;48.682;9.032;2022-11-27T11:56:37;6.22;;;3.58;;
13469;SDS011;6807;48.682;9.032;2022-11-27T11:59:11;4.60;;;3.67;;
13469;SDS011;6807;48.682;9.032;2022-11-27T12:01:48;3.17;;;2.80;;
13469;SDS011;6807;48.682;9.032;2022-11-27T12:04:33;3.60;;;2.72;;
13469;SDS011;6807;48.682;9.032;2022-11-27T12:07:33;5.40;;;3.00;;
13469;SDS011;6807;48.682;9.032;2022-11-27T12:10:11;3.60;;;2.95;;
13469;SDS011;6807;48.682;9.032;2022-11-27T12:12:49;3.92;;;2.72;;
13469;SDS011;6807;48.682;9.032;2022-11-27T12:15:30;4.13;;;2.88;;
13469;SDS011;6807;48.682;9.032;2022-11-27T12:18:04;3.15;;;2.22;;
13469;SDS011;6807;48.682;9.032;2022-11-27T12:20:45;3.38;;;2.40;;
13469;SDS011;6807;48.682;9.032;2022-11-27T12:23:46;4.72;;;2.30;;
13469;SDS011;6807;48.682;9.032;2022-11-27T12:26:47;4.03;;;2.60;;
13469;SDS011;6807;48.682;9.032;2022-11-27T12:29:51;2.80;;;2.35;;
13469;SDS011;6807;48.682;9.032;2022-11-27T12:36:03;3.83;;;2.95;;
13469;SDS011;6807;48.682;9.032;2022-11-27T12:38:45;3.03;;;2.72;;
13469;SDS011;6807;48.682;9.032;2022-11-27T12:41:37;4.47;;;3.60;;
13469;SDS011;6807;48.682;9.032;2022-11-27T12:44:31;2.58;;;2.38;;
13469;SDS011;6807;48.682;9.032;2022-11-27T12:47:24;3.05;;;2.45;;
13469;SDS011;6807;48.682;9.032;2022-11-27T12:50:06;4.55;;;3.00;;
13469;SDS011;6807;48.682;9.032;2022-11-27T12:59:47;2.35;;;2.15;;
13469;SDS011;6807;48.682;9.032;2022-11-27T13:03:12;2.67;;;2.40;;
13469;SDS011;6807;48.682;9.032;2022-11-27T13:05:48;5.40;;;2.30;;
13469;SDS011;6807;48.682;9.032;2022-11-27T13:08:23;2.50;;;2.30;;
13469;SDS011;6807;48.682;9.032;2022-11-27T13:11:44;3.08;;;2.50;;
13469;SDS011;6807;48.682;9.032;2022-11-27T13:15:18;4.20;;;2.70;;
13469;SDS011;6807;48.682;9.032;2022-11-27T13:17:50;3.72;;;2.90;;
13469;SDS011;6807;48.682;9.032;2022-11-27T13:20:26;6.10;;;2.53;;
13469;SDS011;6807;48.682;9.032;2022-11-27T13:22:58;3.10;;;2.40;;
13469;SDS011;6807;48.682;9.032;2022-11-27T13:25:26;4.43;;;3.33;;
13469;SDS011;6807;48.682;9.032;2022-11-27T13:27:55;5.50;;;4.30;;
13469;SDS011;6807;48.682;9.032;2022-11-27T13:30:26;4.00;;;3.00;;
13469;SDS011;6807;48.682;9.032;2022-11-27T13:32:58;3.83;;;3.10;;
13469;SDS011;6807;48.682;9.032;2022-11-27T13:35:27;2.80;;;2.60;;
13469;SDS011;6807;48.682;9.032;2022-11-27T13:37:58;6.43;;;3.22;;
13469;SDS011;6807;48.682;9.032;2022-11-27T13:40:35;3.97;;;3.55;;
13469;SDS011;6807;48.682;9.032;2022-11-27T13:43:05;3.53;;;3.22;;
13469;SDS011;6807;48.682;9.032;2022-11-27T13:45:47;4.03;;;3.03;;
13469;SDS011;6807;48.682;9.032;2022-11-27T13:48:21;4.40;;;2.90;;
13469;SDS011;6807;48.682;9.032;2022-11-27T13:50:53;2.92;;;2.60;;
13469;SDS011;6807;48.682;9.032;2022-11-27T13:53:28;3.88;;;2.67;;
13469;SDS011;6807;48.682;9.032;2022-11-27T13:56:00;4.60;;;3.38;;
13469;SDS011;6807;48.682;9.032;2022-11-27T13:58:28;4.90;;;3.08;;
13469;SDS011;6807;48.682;9.032;2022-11-27T14:00:58;3.75;;;3.45;;
13469;SDS011;6807;48.682;9.032;2022-11-27T14:03:38;5.20;;;4.43;;
13469;SDS011;6807;48.682;9.032;2022-11-27T14:06:13;4.88;;;3.40;;
13469;SDS011;6807;48.682;9.032;2022-11-27T14:08:47;3.47;;;2.92;;
13469;SDS011;6807;48.682;9.032;2022-11-27T14:11:26;4.60;;;2.75;;
13469;SDS011;6807;48.682;9.032;2022-11-27T14:13:58;4.47;;;3.00;;
13469;SDS011;6807;48.682;9.032;2022-11-27T14:16:28;5.30;;;3.40;;
13469;SDS011;6807;48.682;9.032;2022-11-27T14:19:00;3.70;;;3.13;;
13469;SDS011;6807;48.682;9.032;2022-11-27T14:21:34;4.03;;;3.08;;
13469;SDS011;6807;48.682;9.032;2022-11-27T14:26:53;2.33;;;2.13;;
13469;SDS011;6807;48.682;9.032;2022-11-27T14:29:20;5.63;;;2.10;;
13469;SDS011;6807;48.682;9.032;2022-11-27T14:31:57;2.60;;;2.40;;
13469;SDS011;6807;48.682;9.032;2022-11-27T14:34:28;2.33;;;2.13;;
13469;SDS011;6807;48.682;9.032;2022-11-27T14:37:03;3.35;;;2.60;;
13469;SDS011;6807;48.682;9.032;2022-11-27T14:39:52;2.97;;;2.65;;
13469;SDS011;6807;48.682;9.032;2022-11-27T14:42:21;3.15;;;2.63;;
13469;SDS011;6807;48.682;9.032;2022-11-27T15:03:58;5.13;;;4.35;;
13469;SDS011;6807;48.682;9.032;2022-11-27T15:06:25;4.22;;;3.35;;
13469;SDS011;6807;48.682;9.032;2022-11-27T18:26:33;10.77;;;7.78;;
13469;SDS011;6807;48.682;9.032;2022-11-27T18:29:21;10.27;;;6.80;;
13469;SDS011;6807;48.682;9.032;2022-11-27T18:32:43;8.73;;;6.95;;
13469;SDS011;6807;48.682;9.032;2022-11-27T18:35:16;11.25;;;7.38;;
13469;SDS011;6807;48.682;9.032;2022-11-27T18:38:00;9.32;;;7.53;;
13469;SDS011;6807;48.682;9.032;2022-11-27T18:40:27;9.80;;;8.00;;
13469;SDS011;6807;48.682;9.032;2022-11-27T18:42:59;10.13;;;7.78;;
13469;SDS011;6807;48.682;9.032;2022-11-27T18:45:26;11.05;;;7.53;;
13469;SDS011;6807;48.682;9.032;2022-11-27T18:47:56;9.60;;;6.57;;
13469;SDS011;6807;48.682;9.032;2022-11-27T18:50:26;8.93;;;6.80;;
13469;SDS011;6807;48.682;9.032;2022-11-27T18:52:53;7.82;;;6.50;;
13469;SDS011;6807;48.682;9.032;2022-11-27T18:55:21;8.68;;;6.50;;
13469;SDS011;6807;48.682;9.032;2022-11-27T18:57:48;7.95;;;6.60;;
13469;SDS011;6807;48.682;9.032;2022-11-27T19:00:17;7.85;;;6.38;;
13469;SDS011;6807;48.682;9.032;2022-11-27T19:02:44;8.63;;;7.35;;
13469;SDS011;6807;48.682;9.032;2022-11-27T19:05:12;8.52;;;6.75;;
13469;SDS011;6807;48.682;9.032;2022-11-27T19:07:39;7.75;;;6.13;;
13469;SDS011;6807;48.682;9.032;2022-11-27T19:10:07;33.88;;;22.52;;
13469;SDS011;6807;48.682;9.032;2022-11-27T19:12:35;11.20;;;8.68;;
13469;SDS011;6807;48.682;9.032;2022-11-27T19:15:02;6.90;;;5.93;;
13469;SDS011;6807;48.682;9.032;2022-11-27T19:17:33;7.93;;;5.57;;
13469;SDS011;6807;48.682;9.032;2022-11-27T19:20:02;9.95;;;7.00;;
13469;SDS011;6807;48.682;9.032;2022-11-27T19:22:31;7.43;;;6.00;;
13469;SDS011;6807;48.682;9.032;2022-11-27T19:24:59;7.85;;;6.35;;
13469;SDS011;6807;48.682;9.032;2022-11-27T19:27:26;9.80;;;7.47;;
13469;SDS011;6807;48.682;9.032;2022-11-27T19:29:53;8.48;;;6.82;;
13469;SDS011;6807;48.682;9.032;2022-11-27T19:32:21;10.10;;;7.25;;
13469;SDS011;6807;48.682;9.032;2022-11-27T19:34:51;11.55;;;7.53;;
13469;SDS011;6807;48.682;9.032;2022-11-27T19:37:18;11.88;;;7.28;;
13469;SDS011;6807;48.682;9.032;2022-11-27T19:39:47;10.35;;;7.30;;
13469;SDS011;6807;48.682;9.032;2022-11-27T19:42:17;10.73;;;7.30;;
13469;SDS011;6807;48.682;9.032;2022-11-27T19:44:46;11.45;;;8.02;;
13469;SDS011;6807;48.682;9.032;2022-11-27T19:47:14;9.73;;;7.60;;
13469;SDS011;6807;48.682;9.032;2022-11-27T19:49:42;8.88;;;7.57;;
13469;SDS011;6807;48.682;9.032;2022-11-27T19:52:11;10.98;;;7.65;;
13469;SDS011;6807;48.682;9.032;2022-11-27T19:54:38;8.23;;;7.13;;
13469;SDS011;6807;48.682;9.032;2022-11-27T19:57:06;10.13;;;7.07;;
13469;SDS011;6807;48.682;9.032;2022-11-27T19:59:34;7.30;;;6.43;;
13469;SDS011;6807;48.682;9.032;2022-11-27T20:02:02;9.95;;;6.80;;
13469;SDS011;6807;48.682;9.032;2022-11-27T20:04:29;8.65;;;6.95;;
13469;SDS011;6807;48.682;9.032;2022-11-27T20:06:56;10.63;;;7.40;;